createdAt,value
2023-05-14T00:00:54.214Z,64.84
2023-05-14T00:03:21.646Z,65.44
2023-05-14T00:05:48.932Z,66.21
2023-05-14T00:08:16.278Z,66.57
2023-05-14T00:10:43.553Z,66.74
2023-05-14T00:13:10.893Z,67.50
2023-05-14T00:15:38.418Z,67.29
2023-05-14T00:18:05.736Z,67.45
2023-05-14T00:20:33.229Z,67.74
2023-05-14T00:23:00.656Z,68.77
2023-05-14T00:25:28.342Z,67.66
2023-05-14T00:27:55.645Z,68.13
2023-05-14T00:30:23.156Z,68.05
2023-05-14T00:32:50.687Z,69.08
2023-05-14T00:35:18.160Z,68.58
2023-05-14T00:37:45.392Z,68.38
2023-05-14T00:40:13.142Z,68.34
2023-05-14T00:42:40.835Z,69.75
2023-05-14T00:45:08.539Z,68.73
2023-05-14T00:47:36.273Z,68.82
2023-05-14T00:50:04.552Z,68.99
2023-05-14T00:52:32.067Z,70.51
2023-05-14T00:55:00.729Z,69.09
2023-05-14T00:57:28.068Z,69.42
2023-05-14T00:59:55.964Z,69.41
2023-05-14T01:02:23.400Z,71.62
2023-05-14T01:04:51.946Z,69.57
2023-05-14T01:07:36.200Z,69.72
2023-05-14T01:10:11.365Z,69.59
2023-05-14T01:13:04.213Z,70.41
2023-05-14T01:15:33.519Z,69.58
2023-05-14T01:18:10.194Z,70.15
2023-05-14T01:20:37.539Z,70.34
2023-05-14T01:23:04.804Z,70.52
2023-05-14T01:25:32.103Z,70.27
2023-05-14T01:28:02.376Z,70.32
2023-05-14T01:30:34.073Z,70.18
2023-05-14T01:33:05.788Z,71.77
2023-05-14T01:35:33.676Z,70.06
2023-05-14T01:38:03.410Z,70.89
2023-05-14T01:40:32.758Z,70.77
2023-05-14T01:43:01.209Z,72.30
2023-05-14T01:45:29.923Z,70.73
2023-05-14T01:47:58.009Z,70.90
2023-05-14T01:50:26.524Z,71.05
2023-05-14T01:52:53.937Z,74.67
2023-05-14T01:55:21.207Z,71.95
2023-05-14T01:57:48.553Z,72.69
2023-05-14T02:00:15.932Z,73.09
2023-05-14T02:02:43.425Z,74.60
2023-05-14T02:05:11.584Z,73.65
2023-05-14T02:07:39.056Z,73.38
2023-05-14T02:10:07.189Z,74.13
2023-05-14T02:12:34.678Z,76.25
2023-05-14T02:15:03.321Z,73.85
2023-05-14T02:17:30.796Z,73.98
2023-05-14T02:19:58.698Z,73.83
2023-05-14T02:22:25.992Z,74.85
2023-05-14T02:24:53.347Z,74.07
2023-05-14T02:27:20.570Z,74.30
2023-05-14T02:29:47.800Z,73.92
2023-05-14T02:32:15.135Z,74.25
2023-05-14T02:34:42.504Z,74.18
2023-05-14T02:37:09.837Z,74.42
2023-05-14T02:39:37.114Z,74.64
2023-05-14T02:42:04.588Z,75.26
2023-05-14T02:44:32.078Z,77.87
2023-05-14T02:46:59.298Z,79.89
2023-05-14T02:49:26.521Z,79.72
2023-05-14T02:51:53.791Z,82.83
2023-05-14T02:54:21.095Z,82.89
2023-05-14T02:56:48.399Z,84.04
2023-05-14T02:59:16.336Z,82.03
2023-05-14T03:01:44.616Z,83.89
2023-05-14T03:04:12.385Z,84.23
2023-05-14T03:06:39.674Z,82.65
2023-05-14T03:09:07.124Z,81.69
2023-05-14T03:11:35.190Z,82.79
2023-05-14T03:14:02.413Z,82.20
2023-05-14T03:16:29.872Z,82.20
2023-05-14T03:18:58.115Z,83.27
2023-05-14T03:21:25.893Z,85.17
2023-05-14T03:23:53.676Z,83.97
2023-05-14T03:26:20.918Z,82.56
2023-05-14T03:28:48.557Z,81.20
2023-05-14T03:31:15.912Z,80.89
2023-05-14T03:33:43.320Z,83.63
2023-05-14T03:36:10.708Z,81.27
2023-05-14T03:38:38.397Z,80.99
2023-05-14T03:41:05.662Z,81.04
2023-05-14T03:43:33.559Z,82.37
2023-05-14T03:46:00.871Z,80.37
2023-05-14T03:48:28.639Z,80.32
2023-05-14T03:50:57.344Z,80.38
2023-05-14T03:53:26.484Z,83.12
2023-05-14T03:55:54.478Z,79.79
2023-05-14T03:58:22.096Z,79.56
2023-05-14T04:00:49.979Z,79.74
2023-05-14T04:03:17.966Z,82.88
2023-05-14T04:05:45.814Z,75.51
2023-05-14T04:08:14.441Z,72.72
2023-05-14T04:10:43.327Z,70.69
2023-05-14T04:13:11.542Z,72.28
2023-05-14T04:15:39.284Z,69.35
2023-05-14T04:18:07.212Z,68.87
2023-05-14T04:20:35.362Z,66.87
2023-05-14T04:23:03.175Z,69.49
2023-05-14T04:25:31.072Z,66.81
2023-05-14T04:27:58.378Z,67.48
2023-05-14T04:30:26.020Z,65.32
2023-05-14T04:32:53.599Z,66.80
2023-05-14T04:35:24.035Z,66.17
2023-05-14T04:37:52.324Z,65.08
2023-05-14T04:40:19.558Z,67.39
2023-05-14T04:42:46.784Z,64.18
2023-05-14T04:45:14.136Z,63.54
2023-05-14T04:47:41.584Z,65.39
2023-05-14T04:50:09.694Z,63.66
2023-05-14T04:52:37.669Z,63.30
2023-05-14T04:55:05.701Z,65.91
2023-05-14T04:57:33.073Z,68.65
2023-05-14T05:00:00.423Z,71.30
2023-05-14T05:02:27.877Z,73.95
2023-05-14T05:04:55.913Z,71.79
2023-05-14T05:07:25.175Z,72.06
2023-05-14T05:09:53.038Z,75.35
2023-05-14T05:12:20.759Z,75.12
2023-05-14T05:14:51.780Z,73.87
2023-05-14T05:17:19.632Z,75.15
2023-05-14T05:19:47.523Z,75.69
2023-05-14T05:22:15.680Z,76.49
2023-05-14T05:24:52.884Z,75.32
2023-05-14T05:27:20.537Z,73.74
2023-05-14T05:29:48.045Z,74.45
2023-05-14T05:32:15.317Z,75.53
2023-05-14T05:34:42.621Z,75.74
2023-05-14T05:37:10.016Z,74.46
2023-05-14T05:39:37.278Z,75.27
2023-05-14T05:42:05.702Z,73.92
2023-05-14T05:44:32.991Z,77.91
2023-05-14T05:47:00.258Z,74.48
2023-05-14T05:49:27.557Z,73.86
2023-05-14T05:51:54.744Z,74.89
2023-05-14T05:54:23.699Z,76.70
2023-05-14T05:56:51.605Z,74.83
2023-05-14T05:59:18.910Z,74.69
2023-05-14T06:01:46.647Z,74.35
2023-05-14T06:04:13.976Z,76.57
2023-05-14T06:06:41.598Z,74.71
2023-05-14T06:09:08.966Z,75.34
2023-05-14T06:11:36.315Z,75.72
2023-05-14T06:14:03.944Z,75.20
2023-05-14T06:16:31.348Z,75.10
2023-05-14T06:18:58.750Z,75.05
2023-05-14T06:21:26.067Z,76.16
2023-05-14T06:23:53.416Z,75.49
2023-05-14T06:26:20.747Z,75.34
2023-05-14T06:28:48.021Z,77.74
2023-05-14T06:31:15.351Z,80.07
2023-05-14T06:33:42.527Z,76.71
2023-05-14T06:36:10.019Z,78.59
2023-05-14T06:38:37.438Z,78.40
2023-05-14T06:41:04.801Z,80.36
2023-05-14T06:43:32.156Z,78.89
2023-05-14T06:45:59.411Z,80.64
2023-05-14T06:48:27.139Z,80.62
2023-05-14T06:50:55.451Z,81.10
2023-05-14T06:53:22.749Z,82.00
2023-05-14T06:55:50.068Z,81.61
2023-05-14T06:58:17.431Z,80.83
2023-05-14T07:00:44.673Z,81.89
2023-05-14T07:03:11.970Z,83.82
2023-05-14T07:05:39.304Z,85.73
2023-05-14T07:08:06.792Z,82.66
2023-05-14T07:10:34.315Z,82.14
2023-05-14T07:13:01.711Z,85.03
2023-05-14T07:15:28.998Z,85.06
2023-05-14T07:17:56.709Z,82.36
2023-05-14T07:20:25.390Z,84.63
2023-05-14T07:22:53.017Z,86.23
2023-05-14T07:25:20.325Z,85.62
2023-05-14T07:27:47.687Z,81.95
2023-05-14T07:30:15.178Z,84.62
2023-05-14T07:32:42.566Z,85.31
2023-05-14T07:35:10.334Z,84.42
2023-05-14T07:37:37.944Z,83.45
2023-05-14T07:40:05.718Z,83.56
2023-05-14T07:42:36.646Z,84.07
2023-05-14T07:45:05.073Z,85.24
2023-05-14T07:47:33.647Z,80.71
2023-05-14T07:50:01.028Z,79.59
2023-05-14T07:52:28.251Z,79.54
2023-05-14T07:54:56.343Z,80.45
2023-05-14T07:57:23.585Z,78.74
2023-05-14T07:59:50.809Z,79.37
2023-05-14T08:02:18.143Z,79.36
2023-05-14T08:04:45.617Z,80.60
2023-05-14T08:07:12.884Z,77.47
2023-05-14T08:09:40.275Z,79.12
2023-05-14T08:12:07.724Z,77.83
2023-05-14T08:14:35.056Z,83.91
2023-05-14T08:17:02.417Z,79.82
2023-05-14T08:19:30.052Z,79.29
2023-05-14T08:21:57.536Z,81.22
2023-05-14T08:24:24.861Z,83.51
2023-05-14T08:26:52.355Z,81.64
2023-05-14T08:29:19.691Z,80.59
2023-05-14T08:31:47.357Z,81.22
2023-05-14T08:34:14.665Z,83.18
2023-05-14T08:36:42.148Z,82.48
2023-05-14T08:39:09.582Z,80.61
2023-05-14T08:41:36.938Z,82.56
2023-05-14T08:44:11.436Z,80.96
2023-05-14T08:46:39.728Z,79.25
2023-05-14T08:49:13.191Z,78.03
2023-05-14T08:51:41.136Z,77.41
2023-05-14T08:54:11.192Z,78.28
2023-05-14T08:56:39.720Z,79.84
2023-05-14T08:59:07.056Z,75.87
2023-05-14T09:01:34.575Z,76.72
2023-05-14T09:04:04.359Z,77.06
2023-05-14T09:06:31.965Z,77.84
2023-05-14T09:08:59.289Z,74.62
2023-05-14T09:11:26.649Z,73.41
2023-05-14T09:13:53.928Z,73.04
2023-05-14T09:16:22.164Z,74.29
2023-05-14T09:18:51.341Z,74.36
2023-05-14T09:21:18.736Z,75.13
2023-05-14T09:23:45.978Z,73.61
2023-05-14T09:26:17.705Z,73.04
2023-05-14T09:28:45.426Z,72.97
2023-05-14T09:31:12.993Z,72.90
2023-05-14T09:33:40.428Z,69.79
2023-05-14T09:36:07.926Z,68.79
2023-05-14T09:38:35.223Z,68.82
2023-05-14T09:41:02.579Z,69.95
2023-05-14T09:43:29.855Z,68.56
2023-05-14T09:45:57.166Z,72.70
2023-05-14T09:48:25.794Z,67.64
2023-05-14T09:50:53.565Z,66.12
2023-05-14T09:53:20.999Z,66.50
2023-05-14T09:55:48.316Z,67.02
2023-05-14T09:58:15.918Z,66.60
2023-05-14T10:00:45.778Z,65.26
2023-05-14T10:03:16.052Z,64.64
2023-05-14T10:05:47.552Z,64.61
2023-05-14T10:08:24.847Z,65.54
2023-05-14T10:10:55.509Z,65.25
2023-05-14T10:13:29.232Z,63.91
2023-05-14T10:16:03.360Z,62.53
2023-05-14T10:18:35.628Z,64.00
2023-05-14T10:21:07.863Z,64.15
2023-05-14T10:23:36.755Z,62.47
2023-05-14T10:26:05.034Z,64.61
2023-05-14T10:28:32.981Z,61.84
2023-05-14T10:31:00.501Z,61.08
2023-05-14T10:33:27.938Z,61.30
2023-05-14T10:36:05.722Z,62.35
2023-05-14T10:38:37.420Z,61.41
2023-05-14T10:41:11.454Z,60.37
2023-05-14T10:43:40.914Z,61.30
2023-05-14T10:46:09.687Z,62.03
2023-05-14T10:48:39.080Z,60.55
2023-05-14T10:51:08.712Z,58.32
2023-05-14T10:53:41.205Z,59.87
2023-05-14T10:56:14.347Z,59.75
2023-05-14T10:58:45.124Z,57.79
2023-05-14T11:01:13.405Z,57.71
2023-05-14T11:03:45.728Z,55.30
2023-05-14T11:06:15.021Z,57.35
2023-05-14T11:08:42.479Z,56.02
2023-05-14T11:11:10.172Z,55.94
2023-05-14T11:13:37.908Z,55.35
2023-05-14T11:16:18.979Z,58.17
2023-05-14T11:18:54.004Z,54.72
2023-05-14T11:21:21.492Z,55.41
2023-05-14T11:23:51.304Z,54.30
2023-05-14T11:26:21.404Z,54.87
2023-05-14T11:28:49.660Z,52.70
2023-05-14T11:31:17.129Z,53.23
2023-05-14T11:33:44.478Z,52.07
2023-05-14T11:36:11.855Z,55.51
2023-05-14T11:38:49.256Z,53.28
2023-05-14T11:41:16.689Z,54.37
2023-05-14T11:43:44.019Z,54.07
2023-05-14T11:46:17.355Z,54.08
2023-05-14T11:49:06.130Z,53.35
2023-05-14T11:51:36.094Z,52.80
2023-05-14T11:54:03.710Z,53.18
2023-05-14T11:56:31.114Z,53.92
2023-05-14T11:58:58.730Z,52.83
2023-05-14T12:01:26.136Z,54.11
2023-05-14T12:03:53.624Z,53.69
2023-05-14T12:06:20.965Z,57.05
2023-05-14T12:08:48.274Z,54.31
2023-05-14T12:11:20.898Z,54.39
2023-05-14T12:13:48.204Z,54.04
2023-05-14T12:16:15.643Z,55.15
2023-05-14T12:18:43.439Z,53.87
2023-05-14T12:21:10.873Z,53.85
2023-05-14T12:23:39.233Z,53.91
2023-05-14T12:26:08.620Z,55.97
2023-05-14T12:28:39.297Z,53.37
2023-05-14T12:31:06.761Z,54.33
2023-05-14T12:33:34.183Z,55.03
2023-05-14T12:36:14.017Z,57.98
2023-05-14T12:38:50.149Z,55.15
2023-05-14T12:41:18.002Z,54.18
2023-05-14T12:43:48.016Z,54.78
2023-05-14T12:46:15.778Z,54.07
2023-05-14T12:48:43.187Z,54.20
2023-05-14T12:51:10.561Z,54.72
2023-05-14T12:53:38.209Z,54.54
2023-05-14T12:56:06.636Z,58.44
2023-05-14T12:58:34.202Z,54.56
2023-05-14T13:01:01.622Z,54.72
2023-05-14T13:03:29.947Z,55.79
2023-05-14T13:05:57.385Z,56.18
2023-05-14T13:08:26.377Z,53.94
2023-05-14T13:10:54.917Z,54.60
2023-05-14T13:13:23.172Z,54.23
2023-05-14T13:15:50.991Z,57.98
2023-05-14T13:18:18.632Z,54.07
2023-05-14T13:20:46.774Z,54.14
2023-05-14T13:23:14.609Z,54.74
2023-05-14T13:25:42.077Z,57.90
2023-05-14T13:28:09.726Z,55.98
2023-05-14T13:30:37.010Z,56.16
2023-05-14T13:33:05.102Z,55.89
2023-05-14T13:35:32.995Z,55.51
2023-05-14T13:38:00.388Z,56.05
2023-05-14T13:40:27.611Z,56.05
2023-05-14T13:42:54.875Z,55.03
2023-05-14T13:45:22.214Z,56.19
2023-05-14T13:47:51.503Z,57.59
2023-05-14T13:50:19.046Z,57.49
2023-05-14T13:52:46.345Z,57.19
2023-05-14T13:55:13.723Z,57.89
2023-05-14T13:57:40.996Z,58.30
2023-05-14T14:00:09.179Z,58.19
2023-05-14T14:02:36.626Z,58.49
2023-05-14T14:05:04.392Z,58.71
2023-05-14T14:07:31.845Z,59.24
2023-05-14T14:09:59.223Z,59.27
2023-05-14T14:12:27.193Z,59.17
2023-05-14T14:14:54.446Z,59.37
2023-05-14T14:17:21.682Z,59.13
2023-05-14T14:19:49.094Z,59.29
2023-05-14T14:22:16.441Z,59.95
2023-05-14T14:24:43.819Z,60.13
2023-05-14T14:27:11.478Z,61.04
2023-05-14T14:29:38.841Z,60.38
2023-05-14T14:32:06.713Z,60.31
2023-05-14T14:34:34.262Z,60.69
2023-05-14T14:37:01.532Z,63.29
2023-05-14T14:39:28.752Z,62.27
2023-05-14T14:41:56.077Z,62.88
2023-05-14T14:44:23.395Z,63.14
2023-05-14T14:46:51.000Z,64.85
2023-05-14T14:49:18.277Z,63.07
2023-05-14T14:51:45.684Z,63.14
2023-05-14T14:54:13.939Z,63.05
2023-05-14T14:56:41.370Z,64.53
2023-05-14T14:59:08.681Z,63.50
2023-05-14T15:01:36.060Z,63.47
2023-05-14T15:04:03.406Z,63.62
2023-05-14T15:06:30.649Z,66.06
2023-05-14T15:08:57.936Z,64.83
2023-05-14T15:11:25.235Z,65.08
2023-05-14T15:13:52.545Z,65.09
2023-05-14T15:16:19.937Z,65.76
2023-05-14T15:18:47.223Z,64.28
2023-05-14T15:21:14.840Z,65.11
2023-05-14T15:23:44.945Z,65.11
2023-05-14T15:26:12.329Z,65.32
2023-05-14T15:28:39.586Z,65.01
2023-05-14T15:31:07.207Z,65.23
2023-05-14T15:33:34.477Z,64.77
2023-05-14T15:36:01.718Z,64.71
2023-05-14T15:38:46.896Z,64.37
2023-05-14T15:41:14.237Z,64.73
2023-05-14T15:43:42.449Z,64.60
2023-05-14T15:46:11.241Z,66.85
2023-05-14T15:48:38.768Z,64.71
2023-05-14T15:51:06.288Z,64.69
2023-05-14T15:53:33.934Z,62.80
2023-05-14T15:56:01.327Z,62.35
2023-05-14T15:58:28.543Z,61.52
2023-05-14T16:00:55.865Z,60.99
2023-05-14T16:03:23.296Z,61.82
2023-05-14T16:05:50.713Z,61.51
2023-05-14T16:08:18.060Z,61.84
2023-05-14T16:10:45.345Z,62.85
2023-05-14T16:13:12.819Z,62.32
2023-05-14T16:15:40.316Z,62.93
2023-05-14T16:18:07.882Z,63.34
2023-05-14T16:20:35.144Z,63.05
2023-05-14T16:23:02.405Z,63.51
2023-05-14T16:25:30.287Z,64.00
2023-05-14T16:27:57.568Z,63.01
2023-05-14T16:30:25.145Z,60.90
2023-05-14T16:32:52.606Z,61.18
2023-05-14T16:35:19.864Z,61.12
2023-05-14T16:37:47.321Z,63.44
2023-05-14T16:40:14.603Z,62.93
2023-05-14T16:42:42.832Z,63.00
2023-05-14T16:45:10.714Z,62.62
2023-05-14T16:47:38.025Z,63.61
2023-05-14T16:50:06.074Z,61.99
2023-05-14T16:52:33.531Z,61.96
2023-05-14T16:55:00.849Z,62.07
2023-05-14T16:57:28.044Z,62.95
2023-05-14T16:59:55.424Z,61.86
2023-05-14T17:02:22.712Z,62.08
2023-05-14T17:04:50.072Z,62.17
2023-05-14T17:07:17.420Z,63.18
2023-05-14T17:09:45.008Z,61.05
2023-05-14T17:12:12.258Z,61.36
2023-05-14T17:14:39.538Z,61.99
2023-05-14T17:17:07.271Z,71.58
2023-05-14T17:19:34.579Z,61.78
2023-05-14T17:22:02.059Z,60.63
2023-05-14T17:24:29.334Z,60.30
2023-05-14T17:26:56.862Z,61.32
2023-05-14T17:29:24.224Z,60.39
2023-05-14T17:31:51.854Z,60.89
2023-05-14T17:34:19.256Z,62.68
2023-05-14T17:36:46.625Z,63.67
2023-05-14T17:39:14.028Z,61.51
2023-05-14T17:41:41.595Z,60.73
2023-05-14T17:44:10.720Z,62.43
2023-05-14T17:46:40.255Z,61.01
2023-05-14T17:49:07.682Z,63.20
2023-05-14T17:51:35.324Z,64.30
2023-05-14T17:54:02.710Z,64.82
2023-05-14T17:56:30.240Z,65.55
2023-05-14T17:58:57.671Z,65.69
2023-05-14T18:01:25.021Z,66.15
2023-05-14T18:03:52.530Z,65.81
2023-05-14T18:06:19.987Z,66.18
2023-05-14T18:08:47.241Z,66.22
2023-05-14T18:11:14.568Z,66.25
2023-05-14T18:13:41.854Z,66.84
2023-05-14T18:16:09.167Z,66.71
2023-05-14T18:18:36.614Z,66.99
2023-05-14T18:21:04.092Z,66.42
2023-05-14T18:23:31.502Z,66.90
2023-05-14T18:25:59.623Z,66.68
2023-05-14T18:28:27.860Z,67.44
2023-05-14T18:30:55.194Z,67.57
2023-05-14T18:33:22.442Z,67.77
2023-05-14T18:35:49.726Z,68.20
2023-05-14T18:38:17.102Z,69.12
2023-05-14T18:40:44.492Z,68.50
2023-05-14T18:43:11.766Z,68.79
2023-05-14T18:45:39.830Z,69.21
2023-05-14T18:48:07.264Z,69.98
2023-05-14T18:50:34.601Z,69.52
2023-05-14T18:53:02.061Z,69.24
2023-05-14T18:55:29.487Z,69.27
2023-05-14T18:57:56.987Z,69.77
2023-05-14T19:00:24.531Z,69.91
2023-05-14T19:02:51.936Z,69.65
2023-05-14T19:05:19.609Z,70.10
2023-05-14T19:07:47.096Z,70.71
2023-05-14T19:10:14.845Z,69.29
2023-05-14T19:12:42.325Z,69.45
2023-05-14T19:15:10.091Z,69.61
2023-05-14T19:17:37.502Z,70.41
2023-05-14T19:20:06.229Z,69.75
2023-05-14T19:22:33.920Z,69.23
2023-05-14T19:25:01.432Z,69.30
2023-05-14T19:27:29.329Z,69.68
2023-05-14T19:29:56.998Z,69.30
2023-05-14T19:32:24.291Z,69.01
2023-05-14T19:34:51.744Z,68.69
2023-05-14T19:37:19.190Z,70.67
2023-05-14T19:39:47.162Z,68.92
2023-05-14T19:42:15.574Z,69.88
2023-05-14T19:44:43.056Z,68.79
2023-05-14T19:47:10.830Z,68.83
2023-05-14T19:49:38.317Z,68.09
2023-05-14T19:52:06.077Z,68.07
2023-05-14T19:54:33.386Z,68.18
2023-05-14T19:57:01.676Z,69.08
2023-05-14T19:59:30.154Z,68.23
2023-05-14T20:01:57.370Z,68.18
2023-05-14T20:04:24.825Z,68.04
2023-05-14T20:06:52.646Z,68.30
2023-05-14T20:09:20.071Z,67.89
2023-05-14T20:11:48.136Z,67.97
2023-05-14T20:14:15.392Z,68.05
2023-05-14T20:16:42.966Z,67.84
2023-05-14T20:19:10.385Z,68.38
2023-05-14T20:21:38.950Z,68.08
2023-05-14T20:24:06.473Z,68.08
2023-05-14T20:26:33.982Z,67.68
2023-05-14T20:29:01.304Z,67.82
2023-05-14T20:31:28.902Z,67.17
2023-05-14T20:33:56.350Z,67.65
2023-05-14T20:36:23.828Z,67.81
2023-05-14T20:38:51.179Z,67.90
2023-05-14T20:41:18.415Z,67.78
2023-05-14T20:43:45.784Z,67.51
2023-05-14T20:46:13.235Z,67.49
2023-05-14T20:48:40.583Z,68.29
2023-05-14T20:51:07.928Z,67.53
2023-05-14T20:53:36.099Z,67.92
2023-05-14T20:56:03.490Z,67.84
2023-05-14T20:58:30.953Z,67.83
2023-05-14T21:00:59.260Z,67.76
2023-05-14T21:03:35.483Z,67.81
2023-05-14T21:06:02.920Z,68.02
2023-05-14T21:08:30.673Z,69.80
2023-05-14T21:10:58.123Z,67.99
2023-05-14T21:13:25.441Z,68.24
2023-05-14T21:15:53.044Z,68.41
2023-05-14T21:18:20.452Z,71.09
2023-05-14T21:20:47.938Z,68.29
2023-05-14T21:23:15.237Z,68.24
2023-05-14T21:25:42.541Z,68.65
2023-05-14T21:28:09.864Z,69.48
2023-05-14T21:30:37.207Z,68.31
2023-05-14T21:33:05.119Z,68.76
2023-05-14T21:35:32.711Z,68.61
2023-05-14T21:38:00.205Z,69.64
2023-05-14T21:40:27.538Z,69.02
2023-05-14T21:42:54.852Z,69.08
2023-05-14T21:45:23.610Z,69.13
2023-05-14T21:47:51.650Z,72.47
2023-05-14T21:50:18.932Z,68.65
2023-05-14T21:52:46.206Z,69.07
2023-05-14T21:55:13.995Z,69.40
2023-05-14T21:57:41.433Z,70.15
2023-05-14T22:00:09.101Z,69.33
2023-05-14T22:02:36.822Z,69.62
2023-05-14T22:05:04.572Z,69.63
2023-05-14T22:07:32.745Z,70.68
2023-05-14T22:10:00.034Z,69.98
2023-05-14T22:12:27.627Z,69.91
2023-05-14T22:14:54.962Z,70.39
2023-05-14T22:17:22.225Z,70.35
2023-05-14T22:19:49.501Z,70.65
2023-05-14T22:22:16.729Z,70.81
2023-05-14T22:24:44.197Z,70.44
2023-05-14T22:27:11.435Z,70.69
2023-05-14T22:29:38.971Z,70.98
2023-05-14T22:32:06.758Z,70.58
2023-05-14T22:34:34.099Z,70.55
2023-05-14T22:37:01.566Z,70.88
2023-05-14T22:39:29.282Z,71.06
2023-05-14T22:41:56.576Z,70.32
2023-05-14T22:44:24.178Z,70.20
2023-05-14T22:46:51.698Z,70.02
2023-05-14T22:49:19.027Z,70.05
2023-05-14T22:51:46.215Z,69.67
2023-05-14T22:54:14.393Z,69.65
2023-05-14T22:56:41.692Z,69.72
2023-05-14T22:59:08.930Z,70.11
2023-05-14T23:01:36.219Z,69.15
2023-05-14T23:04:03.616Z,68.70
2023-05-14T23:06:31.192Z,68.60
2023-05-14T23:08:58.490Z,70.31
2023-05-14T23:11:26.906Z,68.43
2023-05-14T23:13:54.703Z,67.47
2023-05-14T23:16:22.208Z,67.66
2023-05-14T23:18:49.750Z,68.10
2023-05-14T23:21:17.186Z,68.07
2023-05-14T23:23:44.459Z,68.01
2023-05-14T23:26:11.765Z,68.54
2023-05-14T23:28:39.230Z,67.92
2023-05-14T23:31:06.562Z,68.20
2023-05-14T23:33:33.770Z,68.14
2023-05-14T23:36:01.229Z,67.54
2023-05-14T23:38:28.526Z,68.31
2023-05-14T23:40:55.774Z,67.41
2023-05-14T23:43:23.200Z,67.13
2023-05-14T23:45:50.559Z,67.20
2023-05-14T23:48:18.255Z,67.73
2023-05-14T23:50:45.530Z,67.44
2023-05-14T23:53:12.924Z,66.37
2023-05-14T23:55:40.439Z,66.09
2023-05-14T23:58:08.161Z,68.48
